sensor_id;sensor_type;location;lat;lon;timestamp;temperature;humidity
1181;DHT22;579;52.046;8.532;2022-09-09T00:00:29;18.80;1.00
1181;DHT22;579;52.046;8.532;2022-09-09T00:03:27;18.60;1.00
1181;DHT22;579;52.046;8.532;2022-09-09T00:06:01;18.70;1.00
1181;DHT22;579;52.046;8.532;2022-09-09T00:08:38;18.40;1.00
1181;DHT22;579;52.046;8.532;2022-09-09T00:11:13;18.50;1.00
1181;DHT22;579;52.046;8.532;2022-09-09T00:13:46;18.50;1.00
1181;DHT22;579;52.046;8.532;2022-09-09T00:16:17;18.50;1.00
1181;DHT22;579;52.046;8.532;2022-09-09T00:18:54;18.40;1.00
1181;DHT22;579;52.046;8.532;2022-09-09T00:26:31;18.30;1.00
1181;DHT22;579;52.046;8.532;2022-09-09T00:29:03;18.60;1.00
1181;DHT22;579;52.046;8.532;2022-09-09T00:31:35;18.40;1.00
1181;DHT22;579;52.046;8.532;2022-09-09T00:34:07;18.50;1.00
1181;DHT22;579;52.046;8.532;2022-09-09T00:36:38;18.70;1.00
1181;DHT22;579;52.046;8.532;2022-09-09T00:39:05;18.70;1.00
1181;DHT22;579;52.046;8.532;2022-09-09T00:44:30;18.60;1.00
1181;DHT22;579;52.046;8.532;2022-09-09T00:47:17;18.40;1.00
1181;DHT22;579;52.046;8.532;2022-09-09T00:50:00;18.40;1.00
1181;DHT22;579;52.046;8.532;2022-09-09T00:52:36;18.30;1.00
1181;DHT22;579;52.046;8.532;2022-09-09T00:55:13;18.50;1.00
1181;DHT22;579;52.046;8.532;2022-09-09T00:57:44;18.40;1.00
1181;DHT22;579;52.046;8.532;2022-09-09T01:03:33;18.00;1.00
1181;DHT22;579;52.046;8.532;2022-09-09T01:06:02;18.20;1.00
1181;DHT22;579;52.046;8.532;2022-09-09T01:09:02;18.00;1.00
1181;DHT22;579;52.046;8.532;2022-09-09T01:11:43;18.20;1.00
1181;DHT22;579;52.046;8.532;2022-09-09T01:14:30;17.90;1.00
1181;DHT22;579;52.046;8.532;2022-09-09T01:17:08;17.80;1.00
1181;DHT22;579;52.046;8.532;2022-09-09T01:19:57;18.10;1.00
1181;DHT22;579;52.046;8.532;2022-09-09T01:22:34;18.10;1.00
1181;DHT22;579;52.046;8.532;2022-09-09T01:28:40;18.10;1.00
1181;DHT22;579;52.046;8.532;2022-09-09T01:31:12;17.90;1.00
1181;DHT22;579;52.046;8.532;2022-09-09T01:33:41;18.00;1.00
1181;DHT22;579;52.046;8.532;2022-09-09T01:41:16;17.90;1.00
1181;DHT22;579;52.046;8.532;2022-09-09T01:43:42;18.00;1.00
1181;DHT22;579;52.046;8.532;2022-09-09T01:46:09;18.20;1.00
1181;DHT22;579;52.046;8.532;2022-09-09T01:48:37;17.90;1.00
1181;DHT22;579;52.046;8.532;2022-09-09T01:51:03;18.10;1.00
1181;DHT22;579;52.046;8.532;2022-09-09T01:53:30;18.30;1.00
1181;DHT22;579;52.046;8.532;2022-09-09T01:56:06;18.50;1.00
1181;DHT22;579;52.046;8.532;2022-09-09T02:01:25;18.40;1.00
1181;DHT22;579;52.046;8.532;2022-09-09T02:03:57;18.50;1.00
1181;DHT22;579;52.046;8.532;2022-09-09T02:06:27;18.30;1.00
1181;DHT22;579;52.046;8.532;2022-09-09T02:08:57;18.20;1.00
1181;DHT22;579;52.046;8.532;2022-09-09T02:11:27;18.40;1.00
1181;DHT22;579;52.046;8.532;2022-09-09T02:13:56;18.20;1.00
1181;DHT22;579;52.046;8.532;2022-09-09T02:16:29;17.90;1.00
1181;DHT22;579;52.046;8.532;2022-09-09T02:24:05;17.90;1.00
1181;DHT22;579;52.046;8.532;2022-09-09T02:26:39;17.90;1.00
1181;DHT22;579;52.046;8.532;2022-09-09T02:29:09;18.30;1.00
1181;DHT22;579;52.046;8.532;2022-09-09T02:31:39;18.10;1.00
1181;DHT22;579;52.046;8.532;2022-09-09T02:34:09;18.40;1.00
1181;DHT22;579;52.046;8.532;2022-09-09T02:36:38;18.70;1.00
1181;DHT22;579;52.046;8.532;2022-09-09T02:39:08;18.50;1.00
1181;DHT22;579;52.046;8.532;2022-09-09T02:46:58;18.80;1.00
1181;DHT22;579;52.046;8.532;2022-09-09T02:49:44;19.00;1.00
1181;DHT22;579;52.046;8.532;2022-09-09T02:52:20;18.90;1.00
1181;DHT22;579;52.046;8.532;2022-09-09T02:54:50;19.20;1.00
1181;DHT22;579;52.046;8.532;2022-09-09T02:57:21;19.10;1.00
1181;DHT22;579;52.046;8.532;2022-09-09T02:59:50;19.10;1.00
1181;DHT22;579;52.046;8.532;2022-09-09T03:05:21;19.30;1.00
1181;DHT22;579;52.046;8.532;2022-09-09T03:07:47;18.90;1.00
1181;DHT22;579;52.046;8.532;2022-09-09T03:10:15;19.00;1.00
1181;DHT22;579;52.046;8.532;2022-09-09T03:12:41;18.90;1.00
1181;DHT22;579;52.046;8.532;2022-09-09T03:15:08;19.10;1.00
1181;DHT22;579;52.046;8.532;2022-09-09T03:17:35;18.80;1.00
1181;DHT22;579;52.046;8.532;2022-09-09T03:20:02;18.80;1.00
1181;DHT22;579;52.046;8.532;2022-09-09T03:27:33;18.60;1.00
1181;DHT22;579;52.046;8.532;2022-09-09T03:29:59;18.60;1.00
1181;DHT22;579;52.046;8.532;2022-09-09T03:32:29;18.90;1.00
1181;DHT22;579;52.046;8.532;2022-09-09T03:34:56;18.80;1.00
1181;DHT22;579;52.046;8.532;2022-09-09T03:37:23;18.80;1.00
1181;DHT22;579;52.046;8.532;2022-09-09T03:39:49;18.60;1.00
1181;DHT22;579;52.046;8.532;2022-09-09T03:42:16;18.60;1.00
1181;DHT22;579;52.046;8.532;2022-09-09T03:49:49;18.50;1.00
1181;DHT22;579;52.046;8.532;2022-09-09T03:52:16;18.60;1.00
1181;DHT22;579;52.046;8.532;2022-09-09T03:54:42;18.70;1.00
1181;DHT22;579;52.046;8.532;2022-09-09T03:57:08;18.50;1.00
1181;DHT22;579;52.046;8.532;2022-09-09T03:59:35;18.60;1.00
1181;DHT22;579;52.046;8.532;2022-09-09T04:02:01;18.70;1.00
1181;DHT22;579;52.046;8.532;2022-09-09T04:04:27;18.60;1.00
1181;DHT22;579;52.046;8.532;2022-09-09T04:11:59;19.00;1.00
1181;DHT22;579;52.046;8.532;2022-09-09T04:14:25;18.80;1.00
1181;DHT22;579;52.046;8.532;2022-09-09T04:16:54;18.80;1.00
1181;DHT22;579;52.046;8.532;2022-09-09T04:19:21;18.50;1.00
1181;DHT22;579;52.046;8.532;2022-09-09T04:21:47;18.70;1.00
1181;DHT22;579;52.046;8.532;2022-09-09T04:24:17;18.50;1.00
1181;DHT22;579;52.046;8.532;2022-09-09T04:26:43;18.60;1.00
1181;DHT22;579;52.046;8.532;2022-09-09T04:33:52;18.10;1.00
1181;DHT22;579;52.046;8.532;2022-09-09T04:36:19;18.00;1.00
1181;DHT22;579;52.046;8.532;2022-09-09T04:38:45;17.60;1.00
1181;DHT22;579;52.046;8.532;2022-09-09T04:41:12;17.50;1.00
1181;DHT22;579;52.046;8.532;2022-09-09T04:43:38;17.30;1.00
1181;DHT22;579;52.046;8.532;2022-09-09T04:46:05;17.20;1.00
1181;DHT22;579;52.046;8.532;2022-09-09T04:48:32;17.70;1.00
1181;DHT22;579;52.046;8.532;2022-09-09T04:56:05;17.90;1.00
1181;DHT22;579;52.046;8.532;2022-09-09T04:58:33;18.00;1.00
1181;DHT22;579;52.046;8.532;2022-09-09T05:01:04;18.00;1.00
1181;DHT22;579;52.046;8.532;2022-09-09T05:03:31;18.30;1.00
1181;DHT22;579;52.046;8.532;2022-09-09T05:06:03;18.30;1.00
1181;DHT22;579;52.046;8.532;2022-09-09T05:08:31;18.20;1.00
1181;DHT22;579;52.046;8.532;2022-09-09T05:10:57;18.20;1.00
1181;DHT22;579;52.046;8.532;2022-09-09T05:18:31;18.10;1.00
1181;DHT22;579;52.046;8.532;2022-09-09T05:20:59;18.50;1.00
1181;DHT22;579;52.046;8.532;2022-09-09T05:23:25;18.60;1.00
1181;DHT22;579;52.046;8.532;2022-09-09T05:25:56;18.60;1.00
1181;DHT22;579;52.046;8.532;2022-09-09T05:28:23;18.70;1.00
1181;DHT22;579;52.046;8.532;2022-09-09T05:30:56;18.80;1.00
1181;DHT22;579;52.046;8.532;2022-09-09T05:33:23;18.80;1.00
1181;DHT22;579;52.046;8.532;2022-09-09T05:40:22;18.90;1.00
1181;DHT22;579;52.046;8.532;2022-09-09T05:42:49;18.80;1.00
1181;DHT22;579;52.046;8.532;2022-09-09T05:45:15;18.50;1.00
1181;DHT22;579;52.046;8.532;2022-09-09T05:47:41;18.50;1.00
1181;DHT22;579;52.046;8.532;2022-09-09T05:50:08;18.30;1.00
1181;DHT22;579;52.046;8.532;2022-09-09T05:52:34;18.50;1.00
1181;DHT22;579;52.046;8.532;2022-09-09T05:55:01;18.50;1.00
1181;DHT22;579;52.046;8.532;2022-09-09T06:02:20;18.40;1.00
1181;DHT22;579;52.046;8.532;2022-09-09T06:04:46;18.60;1.00
1181;DHT22;579;52.046;8.532;2022-09-09T06:07:13;18.70;1.00
1181;DHT22;579;52.046;8.532;2022-09-09T06:09:40;18.50;1.00
1181;DHT22;579;52.046;8.532;2022-09-09T06:12:07;18.40;1.00
1181;DHT22;579;52.046;8.532;2022-09-09T06:14:34;18.40;1.00
1181;DHT22;579;52.046;8.532;2022-09-09T06:17:01;18.40;1.00
1181;DHT22;579;52.046;8.532;2022-09-09T06:22:50;18.30;1.00
1181;DHT22;579;52.046;8.532;2022-09-09T06:25:17;18.10;1.00
1181;DHT22;579;52.046;8.532;2022-09-09T06:27:48;18.60;1.00
1181;DHT22;579;52.046;8.532;2022-09-09T06:30:15;18.40;1.00
1181;DHT22;579;52.046;8.532;2022-09-09T06:32:43;18.40;1.00
1181;DHT22;579;52.046;8.532;2022-09-09T06:35:10;18.40;1.00
1181;DHT22;579;52.046;8.532;2022-09-09T06:37:36;18.40;1.00
1181;DHT22;579;52.046;8.532;2022-09-09T06:43:52;18.60;1.00
1181;DHT22;579;52.046;8.532;2022-09-09T06:46:22;18.40;1.00
1181;DHT22;579;52.046;8.532;2022-09-09T06:48:53;18.40;1.00
1181;DHT22;579;52.046;8.532;2022-09-09T06:51:22;18.60;1.00
1181;DHT22;579;52.046;8.532;2022-09-09T06:53:50;18.60;1.00
1181;DHT22;579;52.046;8.532;2022-09-09T06:56:23;18.80;1.00
1181;DHT22;579;52.046;8.532;2022-09-09T06:58:52;18.90;1.00
1181;DHT22;579;52.046;8.532;2022-09-09T07:03:58;19.00;1.00
1181;DHT22;579;52.046;8.532;2022-09-09T07:06:27;18.90;1.00
1181;DHT22;579;52.046;8.532;2022-09-09T07:08:55;18.70;1.00
1181;DHT22;579;52.046;8.532;2022-09-09T07:11:25;19.20;1.00
1181;DHT22;579;52.046;8.532;2022-09-09T07:13:54;19.20;1.00
1181;DHT22;579;52.046;8.532;2022-09-09T07:16:21;19.50;1.00
1181;DHT22;579;52.046;8.532;2022-09-09T07:18:50;19.20;1.00
1181;DHT22;579;52.046;8.532;2022-09-09T07:25:50;18.90;1.00
1181;DHT22;579;52.046;8.532;2022-09-09T07:28:18;19.30;1.00
1181;DHT22;579;52.046;8.532;2022-09-09T07:30:53;19.40;1.00
1181;DHT22;579;52.046;8.532;2022-09-09T07:33:20;19.20;1.00
1181;DHT22;579;52.046;8.532;2022-09-09T07:35:47;19.70;1.00
1181;DHT22;579;52.046;8.532;2022-09-09T07:38:13;19.70;1.00
1181;DHT22;579;52.046;8.532;2022-09-09T07:40:42;19.90;1.00
1181;DHT22;579;52.046;8.532;2022-09-09T07:43:31;19.70;1.00
1181;DHT22;579;52.046;8.532;2022-09-09T07:45:59;19.60;1.00
1181;DHT22;579;52.046;8.532;2022-09-09T07:48:27;19.90;1.00
1181;DHT22;579;52.046;8.532;2022-09-09T07:51:05;20.20;1.00
1181;DHT22;579;52.046;8.532;2022-09-09T07:53:33;20.10;1.00
1181;DHT22;579;52.046;8.532;2022-09-09T07:56:07;19.90;1.00
1181;DHT22;579;52.046;8.532;2022-09-09T07:58:37;19.80;1.00
1181;DHT22;579;52.046;8.532;2022-09-09T08:05:22;20.20;1.00
1181;DHT22;579;52.046;8.532;2022-09-09T08:07:49;20.30;1.00
1181;DHT22;579;52.046;8.532;2022-09-09T08:10:16;20.30;1.00
1181;DHT22;579;52.046;8.532;2022-09-09T08:12:48;20.20;1.00
1181;DHT22;579;52.046;8.532;2022-09-09T08:15:15;20.20;1.00
1181;DHT22;579;52.046;8.532;2022-09-09T08:17:42;20.10;1.00
1181;DHT22;579;52.046;8.532;2022-09-09T08:20:09;20.00;1.00
1181;DHT22;579;52.046;8.532;2022-09-09T08:26:21;20.00;1.00
1181;DHT22;579;52.046;8.532;2022-09-09T08:28:50;20.10;1.00
1181;DHT22;579;52.046;8.532;2022-09-09T08:31:19;20.40;1.00
1181;DHT22;579;52.046;8.532;2022-09-09T08:33:47;20.40;1.00
1181;DHT22;579;52.046;8.532;2022-09-09T08:36:15;20.70;1.00
1181;DHT22;579;52.046;8.532;2022-09-09T08:38:48;21.10;1.00
1181;DHT22;579;52.046;8.532;2022-09-09T08:41:35;21.10;1.00
1181;DHT22;579;52.046;8.532;2022-09-09T08:44:23;21.10;1.00
1181;DHT22;579;52.046;8.532;2022-09-09T08:47:01;21.40;1.00
1181;DHT22;579;52.046;8.532;2022-09-09T08:49:50;21.70;1.00
1181;DHT22;579;52.046;8.532;2022-09-09T08:52:28;21.80;1.00
1181;DHT22;579;52.046;8.532;2022-09-09T08:54:59;21.80;1.00
1181;DHT22;579;52.046;8.532;2022-09-09T08:57:31;21.80;1.00
1181;DHT22;579;52.046;8.532;2022-09-09T09:02:49;22.10;1.00
1181;DHT22;579;52.046;8.532;2022-09-09T09:05:27;22.40;1.00
1181;DHT22;579;52.046;8.532;2022-09-09T09:08:10;22.40;1.00
1181;DHT22;579;52.046;8.532;2022-09-09T09:10:46;22.40;1.00
1181;DHT22;579;52.046;8.532;2022-09-09T09:13:17;22.30;1.00
1181;DHT22;579;52.046;8.532;2022-09-09T09:15:50;22.40;1.00
1181;DHT22;579;52.046;8.532;2022-09-09T09:21:17;23.00;1.00
1181;DHT22;579;52.046;8.532;2022-09-09T09:23:56;22.50;1.00
1181;DHT22;579;52.046;8.532;2022-09-09T09:26:25;22.20;1.00
1181;DHT22;579;52.046;8.532;2022-09-09T09:28:59;22.10;1.00
1181;DHT22;579;52.046;8.532;2022-09-09T09:31:28;21.90;1.00
1181;DHT22;579;52.046;8.532;2022-09-09T09:33:55;21.80;1.00
1181;DHT22;579;52.046;8.532;2022-09-09T09:36:34;21.50;1.00
1181;DHT22;579;52.046;8.532;2022-09-09T09:42:51;21.20;1.00
1181;DHT22;579;52.046;8.532;2022-09-09T09:45:27;21.10;1.00
1181;DHT22;579;52.046;8.532;2022-09-09T09:47:59;21.20;1.00
1181;DHT22;579;52.046;8.532;2022-09-09T09:50:29;21.50;1.00
1181;DHT22;579;52.046;8.532;2022-09-09T09:52:58;21.30;1.00
1181;DHT22;579;52.046;8.532;2022-09-09T09:55:27;21.20;1.00
1181;DHT22;579;52.046;8.532;2022-09-09T09:58:02;21.00;1.00
1181;DHT22;579;52.046;8.532;2022-09-09T10:03:24;21.10;1.00
1181;DHT22;579;52.046;8.532;2022-09-09T10:05:53;21.30;1.00
1181;DHT22;579;52.046;8.532;2022-09-09T10:08:22;20.90;1.00
1181;DHT22;579;52.046;8.532;2022-09-09T10:11:17;20.80;1.00
1181;DHT22;579;52.046;8.532;2022-09-09T10:14:02;20.80;1.00
1181;DHT22;579;52.046;8.532;2022-09-09T10:16:50;21.10;1.00
1181;DHT22;579;52.046;8.532;2022-09-09T10:23:29;21.50;1.00
1181;DHT22;579;52.046;8.532;2022-09-09T10:26:19;21.80;1.00
1181;DHT22;579;52.046;8.532;2022-09-09T10:29:33;22.20;1.00
1181;DHT22;579;52.046;8.532;2022-09-09T10:32:33;22.30;1.00
1181;DHT22;579;52.046;8.532;2022-09-09T10:35:12;22.30;1.00
1181;DHT22;579;52.046;8.532;2022-09-09T10:38:05;22.10;1.00
1181;DHT22;579;52.046;8.532;2022-09-09T10:44:10;21.80;1.00
1181;DHT22;579;52.046;8.532;2022-09-09T10:47:15;21.80;1.00
1181;DHT22;579;52.046;8.532;2022-09-09T10:50:05;21.70;1.00
1181;DHT22;579;52.046;8.532;2022-09-09T10:52:56;22.00;1.00
1181;DHT22;579;52.046;8.532;2022-09-09T10:55:31;22.10;1.00
1181;DHT22;579;52.046;8.532;2022-09-09T10:58:03;22.30;1.00
1181;DHT22;579;52.046;8.532;2022-09-09T11:05:28;22.20;1.00
1181;DHT22;579;52.046;8.532;2022-09-09T11:08:03;21.90;1.00
1181;DHT22;579;52.046;8.532;2022-09-09T11:10:39;21.80;1.00
1181;DHT22;579;52.046;8.532;2022-09-09T11:13:11;21.90;1.00
1181;DHT22;579;52.046;8.532;2022-09-09T11:15:45;20.90;1.00
1181;DHT22;579;52.046;8.532;2022-09-09T11:18:19;21.90;1.00
1181;DHT22;579;52.046;8.532;2022-09-09T11:20:54;21.70;1.00
1181;DHT22;579;52.046;8.532;2022-09-09T11:28:32;22.30;1.00
1181;DHT22;579;52.046;8.532;2022-09-09T11:31:21;22.50;1.00
1181;DHT22;579;52.046;8.532;2022-09-09T11:34:04;22.60;1.00
1181;DHT22;579;52.046;8.532;2022-09-09T11:37:00;22.90;1.00
1181;DHT22;579;52.046;8.532;2022-09-09T11:39:50;22.70;1.00
1181;DHT22;579;52.046;8.532;2022-09-09T11:42:25;22.80;1.00
1181;DHT22;579;52.046;8.532;2022-09-09T11:50:29;22.70;1.00
1181;DHT22;579;52.046;8.532;2022-09-09T11:53:17;22.30;1.00
1181;DHT22;579;52.046;8.532;2022-09-09T11:55:59;22.30;1.00
1181;DHT22;579;52.046;8.532;2022-09-09T11:58:28;22.50;1.00
1181;DHT22;579;52.046;8.532;2022-09-09T12:00:58;22.90;1.00
1181;DHT22;579;52.046;8.532;2022-09-09T12:03:41;23.00;1.00
1181;DHT22;579;52.046;8.532;2022-09-09T12:11:24;23.20;1.00
1181;DHT22;579;52.046;8.532;2022-09-09T12:13:54;23.20;1.00
1181;DHT22;579;52.046;8.532;2022-09-09T12:16:32;23.30;1.00
1181;DHT22;579;52.046;8.532;2022-09-09T12:19:15;23.20;1.00
1181;DHT22;579;52.046;8.532;2022-09-09T12:21:51;23.30;1.00
1181;DHT22;579;52.046;8.532;2022-09-09T12:24:26;23.40;1.00
1181;DHT22;579;52.046;8.532;2022-09-09T12:29:41;23.70;1.00
1181;DHT22;579;52.046;8.532;2022-09-09T12:32:15;23.90;1.00
1181;DHT22;579;52.046;8.532;2022-09-09T12:34:46;24.40;1.00
1181;DHT22;579;52.046;8.532;2022-09-09T12:37:21;24.50;1.00
1181;DHT22;579;52.046;8.532;2022-09-09T12:39:55;24.60;1.00
1181;DHT22;579;52.046;8.532;2022-09-09T12:42:24;24.50;1.00
1181;DHT22;579;52.046;8.532;2022-09-09T12:47:40;24.00;1.00
1181;DHT22;579;52.046;8.532;2022-09-09T12:50:17;24.20;1.00
1181;DHT22;579;52.046;8.532;2022-09-09T12:52:46;24.10;1.00
1181;DHT22;579;52.046;8.532;2022-09-09T12:55:18;24.20;1.00
1181;DHT22;579;52.046;8.532;2022-09-09T12:57:54;24.20;1.00
1181;DHT22;579;52.046;8.532;2022-09-09T13:00:24;23.90;1.00
1181;DHT22;579;52.046;8.532;2022-09-09T13:02:58;23.60;1.00
1181;DHT22;579;52.046;8.532;2022-09-09T13:09:21;23.90;1.00
1181;DHT22;579;52.046;8.532;2022-09-09T13:11:50;23.80;1.00
1181;DHT22;579;52.046;8.532;2022-09-09T13:14:28;23.60;1.00
1181;DHT22;579;52.046;8.532;2022-09-09T13:16:59;23.30;1.00
1181;DHT22;579;52.046;8.532;2022-09-09T13:19:30;23.40;1.00
1181;DHT22;579;52.046;8.532;2022-09-09T13:22:00;23.20;1.00
1181;DHT22;579;52.046;8.532;2022-09-09T13:27:26;23.40;1.00
1181;DHT22;579;52.046;8.532;2022-09-09T13:29:56;23.60;1.00
1181;DHT22;579;52.046;8.532;2022-09-09T13:32:24;23.30;1.00
1181;DHT22;579;52.046;8.532;2022-09-09T13:34:52;23.30;1.00
1181;DHT22;579;52.046;8.532;2022-09-09T13:37:23;23.60;1.00
1181;DHT22;579;52.046;8.532;2022-09-09T13:39:54;23.70;1.00
1181;DHT22;579;52.046;8.532;2022-09-09T13:45:21;23.60;1.00
1181;DHT22;579;52.046;8.532;2022-09-09T13:47:52;23.80;1.00
1181;DHT22;579;52.046;8.532;2022-09-09T13:50:25;24.10;1.00
1181;DHT22;579;52.046;8.532;2022-09-09T13:52:54;24.10;1.00
1181;DHT22;579;52.046;8.532;2022-09-09T13:55:25;24.00;1.00
1181;DHT22;579;52.046;8.532;2022-09-09T13:57:56;24.20;1.00
1181;DHT22;579;52.046;8.532;2022-09-09T14:00:25;24.00;1.00
1181;DHT22;579;52.046;8.532;2022-09-09T14:06:56;24.10;1.00
1181;DHT22;579;52.046;8.532;2022-09-09T14:09:25;24.00;1.00
1181;DHT22;579;52.046;8.532;2022-09-09T14:11:52;23.70;1.00
1181;DHT22;579;52.046;8.532;2022-09-09T14:14:20;23.80;1.00
1181;DHT22;579;52.046;8.532;2022-09-09T14:16:46;23.80;1.00
1181;DHT22;579;52.046;8.532;2022-09-09T14:19:13;23.90;1.00
1181;DHT22;579;52.046;8.532;2022-09-09T14:21:40;24.10;1.00
1181;DHT22;579;52.046;8.532;2022-09-09T14:28:53;25.10;1.00
1181;DHT22;579;52.046;8.532;2022-09-09T14:31:20;25.10;1.00
1181;DHT22;579;52.046;8.532;2022-09-09T14:33:47;24.90;1.00
1181;DHT22;579;52.046;8.532;2022-09-09T14:36:16;24.70;1.00
1181;DHT22;579;52.046;8.532;2022-09-09T14:38:43;24.20;1.00
1181;DHT22;579;52.046;8.532;2022-09-09T14:41:11;24.00;1.00
1181;DHT22;579;52.046;8.532;2022-09-09T14:43:40;23.80;1.00
1181;DHT22;579;52.046;8.532;2022-09-09T14:49:21;24.90;1.00
1181;DHT22;579;52.046;8.532;2022-09-09T14:51:47;25.70;1.00
1181;DHT22;579;52.046;8.532;2022-09-09T14:54:14;25.60;1.00
1181;DHT22;579;52.046;8.532;2022-09-09T14:56:41;25.40;1.00
1181;DHT22;579;52.046;8.532;2022-09-09T14:59:08;25.40;1.00
1181;DHT22;579;52.046;8.532;2022-09-09T15:01:35;25.20;1.00
1181;DHT22;579;52.046;8.532;2022-09-09T15:04:04;25.00;1.00
1181;DHT22;579;52.046;8.532;2022-09-09T15:10:23;24.00;1.00
1181;DHT22;579;52.046;8.532;2022-09-09T15:12:50;24.00;1.00
1181;DHT22;579;52.046;8.532;2022-09-09T15:15:17;23.90;1.00
1181;DHT22;579;52.046;8.532;2022-09-09T15:17:44;24.40;1.00
1181;DHT22;579;52.046;8.532;2022-09-09T15:20:13;24.50;1.00
1181;DHT22;579;52.046;8.532;2022-09-09T15:22:43;24.70;1.00
1181;DHT22;579;52.046;8.532;2022-09-09T15:25:10;24.70;1.00
1181;DHT22;579;52.046;8.532;2022-09-09T15:31:51;24.10;1.00
1181;DHT22;579;52.046;8.532;2022-09-09T15:34:19;24.10;1.00
1181;DHT22;579;52.046;8.532;2022-09-09T15:36:47;23.80;1.00
1181;DHT22;579;52.046;8.532;2022-09-09T15:39:15;23.70;1.00
1181;DHT22;579;52.046;8.532;2022-09-09T15:41:42;23.70;1.00
1181;DHT22;579;52.046;8.532;2022-09-09T15:44:11;23.60;1.00
1181;DHT22;579;52.046;8.532;2022-09-09T15:46:39;23.30;1.00
1181;DHT22;579;52.046;8.532;2022-09-09T15:53:23;23.40;1.00
1181;DHT22;579;52.046;8.532;2022-09-09T15:55:55;23.30;1.00
1181;DHT22;579;52.046;8.532;2022-09-09T15:58:22;23.20;1.00
1181;DHT22;579;52.046;8.532;2022-09-09T16:00:48;23.40;1.00
1181;DHT22;579;52.046;8.532;2022-09-09T16:03:15;23.20;1.00
1181;DHT22;579;52.046;8.532;2022-09-09T16:05:41;22.70;1.00
1181;DHT22;579;52.046;8.532;2022-09-09T16:08:09;23.00;1.00
1181;DHT22;579;52.046;8.532;2022-09-09T16:13:14;23.20;1.00
1181;DHT22;579;52.046;8.532;2022-09-09T16:15:41;23.50;1.00
1181;DHT22;579;52.046;8.532;2022-09-09T16:18:08;23.20;1.00
1181;DHT22;579;52.046;8.532;2022-09-09T16:20:35;23.00;1.00
1181;DHT22;579;52.046;8.532;2022-09-09T16:23:01;22.90;1.00
1181;DHT22;579;52.046;8.532;2022-09-09T16:25:28;22.80;1.00
1181;DHT22;579;52.046;8.532;2022-09-09T16:27:54;22.90;1.00
1181;DHT22;579;52.046;8.532;2022-09-09T16:34:57;22.50;1.00
1181;DHT22;579;52.046;8.532;2022-09-09T16:37:23;22.40;1.00
1181;DHT22;579;52.046;8.532;2022-09-09T16:39:51;22.30;1.00
1181;DHT22;579;52.046;8.532;2022-09-09T16:42:20;22.20;1.00
1181;DHT22;579;52.046;8.532;2022-09-09T16:44:46;22.20;1.00
1181;DHT22;579;52.046;8.532;2022-09-09T16:47:15;22.10;1.00
1181;DHT22;579;52.046;8.532;2022-09-09T16:49:42;22.00;1.00
1181;DHT22;579;52.046;8.532;2022-09-09T16:52:25;21.80;1.00
1181;DHT22;579;52.046;8.532;2022-09-09T16:54:52;21.80;1.00
1181;DHT22;579;52.046;8.532;2022-09-09T16:57:18;22.20;1.00
1181;DHT22;579;52.046;8.532;2022-09-09T16:59:45;22.40;1.00
1181;DHT22;579;52.046;8.532;2022-09-09T17:02:11;22.70;1.00
1181;DHT22;579;52.046;8.532;2022-09-09T17:04:38;22.50;1.00
1181;DHT22;579;52.046;8.532;2022-09-09T17:07:04;22.40;1.00
1181;DHT22;579;52.046;8.532;2022-09-09T17:12:10;22.80;1.00
1181;DHT22;579;52.046;8.532;2022-09-09T17:14:37;22.70;1.00
1181;DHT22;579;52.046;8.532;2022-09-09T17:17:04;22.30;1.00
1181;DHT22;579;52.046;8.532;2022-09-09T17:19:31;22.00;1.00
1181;DHT22;579;52.046;8.532;2022-09-09T17:21:57;21.60;1.00
1181;DHT22;579;52.046;8.532;2022-09-09T17:24:24;21.20;1.00
1181;DHT22;579;52.046;8.532;2022-09-09T17:26:51;20.70;1.00
1181;DHT22;579;52.046;8.532;2022-09-09T17:32:23;20.30;1.00
1181;DHT22;579;52.046;8.532;2022-09-09T17:34:50;20.20;1.00
1181;DHT22;579;52.046;8.532;2022-09-09T17:37:18;20.20;1.00
1181;DHT22;579;52.046;8.532;2022-09-09T17:39:44;20.10;1.00
1181;DHT22;579;52.046;8.532;2022-09-09T17:42:10;20.20;1.00
1181;DHT22;579;52.046;8.532;2022-09-09T17:44:36;20.30;1.00
1181;DHT22;579;52.046;8.532;2022-09-09T17:47:04;20.40;1.00
1181;DHT22;579;52.046;8.532;2022-09-09T17:54:37;19.70;1.00
1181;DHT22;579;52.046;8.532;2022-09-09T17:57:03;19.70;1.00
1181;DHT22;579;52.046;8.532;2022-09-09T17:59:30;19.40;1.00
1181;DHT22;579;52.046;8.532;2022-09-09T18:01:56;19.20;1.00
1181;DHT22;579;52.046;8.532;2022-09-09T18:04:22;19.30;1.00
1181;DHT22;579;52.046;8.532;2022-09-09T18:06:50;19.20;1.00
1181;DHT22;579;52.046;8.532;2022-09-09T18:09:20;19.10;1.00
1181;DHT22;579;52.046;8.532;2022-09-09T18:16:24;19.50;1.00
1181;DHT22;579;52.046;8.532;2022-09-09T18:18:55;19.70;1.00
1181;DHT22;579;52.046;8.532;2022-09-09T18:21:23;19.50;1.00
1181;DHT22;579;52.046;8.532;2022-09-09T18:23:52;19.60;1.00
1181;DHT22;579;52.046;8.532;2022-09-09T18:26:20;19.20;1.00
1181;DHT22;579;52.046;8.532;2022-09-09T18:28:49;19.30;1.00
1181;DHT22;579;52.046;8.532;2022-09-09T18:31:18;19.30;1.00
1181;DHT22;579;52.046;8.532;2022-09-09T18:38:53;19.80;1.00
1181;DHT22;579;52.046;8.532;2022-09-09T18:41:24;19.80;1.00
1181;DHT22;579;52.046;8.532;2022-09-09T18:43:53;19.90;1.00
1181;DHT22;579;52.046;8.532;2022-09-09T18:46:20;19.90;1.00
1181;DHT22;579;52.046;8.532;2022-09-09T18:48:48;19.70;1.00
1181;DHT22;579;52.046;8.532;2022-09-09T18:51:16;19.80;1.00
1181;DHT22;579;52.046;8.532;2022-09-09T18:53:48;19.80;1.00
1181;DHT22;579;52.046;8.532;2022-09-09T19:01:21;20.30;1.00
1181;DHT22;579;52.046;8.532;2022-09-09T19:03:48;19.90;1.00
1181;DHT22;579;52.046;8.532;2022-09-09T19:06:17;19.90;1.00
1181;DHT22;579;52.046;8.532;2022-09-09T19:08:46;19.60;1.00
1181;DHT22;579;52.046;8.532;2022-09-09T19:11:15;19.80;1.00
1181;DHT22;579;52.046;8.532;2022-09-09T19:13:44;19.60;1.00
1181;DHT22;579;52.046;8.532;2022-09-09T19:16:15;19.60;1.00
1181;DHT22;579;52.046;8.532;2022-09-09T19:22:54;19.50;1.00
1181;DHT22;579;52.046;8.532;2022-09-09T19:25:21;19.10;1.00
1181;DHT22;579;52.046;8.532;2022-09-09T19:27:47;19.00;1.00
1181;DHT22;579;52.046;8.532;2022-09-09T19:30:13;19.20;1.00
1181;DHT22;579;52.046;8.532;2022-09-09T19:32:40;19.20;1.00
1181;DHT22;579;52.046;8.532;2022-09-09T19:35:08;19.30;1.00
1181;DHT22;579;52.046;8.532;2022-09-09T19:37:36;19.10;1.00
1181;DHT22;579;52.046;8.532;2022-09-09T19:45:09;18.60;1.00
1181;DHT22;579;52.046;8.532;2022-09-09T19:47:35;18.60;1.00
1181;DHT22;579;52.046;8.532;2022-09-09T19:50:01;18.80;1.00
1181;DHT22;579;52.046;8.532;2022-09-09T19:52:30;18.90;1.00
1181;DHT22;579;52.046;8.532;2022-09-09T19:54:56;18.80;1.00
1181;DHT22;579;52.046;8.532;2022-09-09T19:57:22;18.80;1.00
1181;DHT22;579;52.046;8.532;2022-09-09T19:59:52;18.80;1.00
1181;DHT22;579;52.046;8.532;2022-09-09T20:07:21;18.70;1.00
1181;DHT22;579;52.046;8.532;2022-09-09T20:09:48;18.50;1.00
1181;DHT22;579;52.046;8.532;2022-09-09T20:12:14;18.40;1.00
1181;DHT22;579;52.046;8.532;2022-09-09T20:14:41;18.40;1.00
1181;DHT22;579;52.046;8.532;2022-09-09T20:17:08;18.20;1.00
1181;DHT22;579;52.046;8.532;2022-09-09T20:19:34;18.40;1.00
1181;DHT22;579;52.046;8.532;2022-09-09T20:22:01;18.20;1.00
1181;DHT22;579;52.046;8.532;2022-09-09T20:29:22;18.30;1.00
1181;DHT22;579;52.046;8.532;2022-09-09T20:31:50;18.20;1.00
1181;DHT22;579;52.046;8.532;2022-09-09T20:34:18;18.30;1.00
1181;DHT22;579;52.046;8.532;2022-09-09T20:36:46;18.20;1.00
1181;DHT22;579;52.046;8.532;2022-09-09T20:39:14;18.20;1.00
1181;DHT22;579;52.046;8.532;2022-09-09T20:41:42;18.00;1.00
1181;DHT22;579;52.046;8.532;2022-09-09T20:44:12;18.00;1.00
1181;DHT22;579;52.046;8.532;2022-09-09T20:50:54;18.20;1.00